createdAt,value
2022-10-17T00:00:47.355Z,2.63
2022-10-17T00:03:15.680Z,2.25
2022-10-17T00:05:47.914Z,2.50
2022-10-17T00:08:17.328Z,3.17
2022-10-17T00:10:44.596Z,2.63
2022-10-17T00:13:13.260Z,2.63
2022-10-17T00:15:44.942Z,2.67
2022-10-17T00:18:12.352Z,2.67
2022-10-17T00:20:39.557Z,2.90
2022-10-17T00:23:06.950Z,2.92
2022-10-17T00:25:34.078Z,2.78
2022-10-17T00:28:01.352Z,2.75
2022-10-17T00:30:28.611Z,2.28
2022-10-17T00:32:56.166Z,2.50
2022-10-17T00:35:23.364Z,2.90
2022-10-17T00:37:50.615Z,2.90
2022-10-17T00:40:18.118Z,2.53
2022-10-17T00:42:47.956Z,2.90
2022-10-17T00:45:27.668Z,2.88
2022-10-17T00:48:08.618Z,3.17
2022-10-17T00:50:37.670Z,3.25
2022-10-17T00:53:08.576Z,3.03
2022-10-17T00:55:42.338Z,2.63
2022-10-17T00:58:09.393Z,2.78
2022-10-17T01:00:36.986Z,2.90
2022-10-17T01:03:05.077Z,3.08
2022-10-17T01:05:33.059Z,2.90
2022-10-17T01:08:00.653Z,2.67
2022-10-17T01:13:25.859Z,2.50
2022-10-17T01:16:15.064Z,2.40
2022-10-17T01:18:51.840Z,2.80
2022-10-17T01:21:37.193Z,2.97
2022-10-17T01:24:27.776Z,3.10
2022-10-17T01:27:19.034Z,2.83
2022-10-17T01:30:16.631Z,3.50
2022-10-17T01:32:51.083Z,2.63
2022-10-17T01:35:46.150Z,3.58
2022-10-17T01:38:21.519Z,3.15
2022-10-17T01:40:50.754Z,2.80
2022-10-17T01:43:24.663Z,3.45
2022-10-17T01:45:53.916Z,2.88
2022-10-17T01:48:32.042Z,2.58
2022-10-17T01:51:06.628Z,2.90
2022-10-17T01:53:37.727Z,3.00
2022-10-17T01:56:08.524Z,2.60
2022-10-17T01:58:52.169Z,2.78
2022-10-17T02:01:21.050Z,3.15
2022-10-17T02:03:50.760Z,3.17
2022-10-17T02:06:17.910Z,3.35
2022-10-17T02:08:50.188Z,2.88
2022-10-17T02:11:22.703Z,3.05
2022-10-17T02:14:21.333Z,2.97
2022-10-17T02:17:05.775Z,2.80
2022-10-17T02:19:32.590Z,3.20
2022-10-17T02:22:40.184Z,3.40
2022-10-17T02:25:23.619Z,2.72
2022-10-17T02:28:04.628Z,2.90
2022-10-17T02:30:55.159Z,3.15
2022-10-17T02:33:30.820Z,3.40
2022-10-17T02:36:01.915Z,3.00
2022-10-17T02:38:32.378Z,3.22
2022-10-17T02:41:00.441Z,3.15
2022-10-17T02:43:28.115Z,3.72
2022-10-17T02:45:56.655Z,3.35
2022-10-17T02:48:47.505Z,3.50
2022-10-17T02:51:43.356Z,3.58
2022-10-17T02:54:45.815Z,3.63
2022-10-17T02:57:21.026Z,4.30
2022-10-17T02:59:49.430Z,4.35
2022-10-17T03:02:16.871Z,3.67
2022-10-17T03:04:47.001Z,3.80
2022-10-17T03:07:14.092Z,3.95
2022-10-17T03:09:41.185Z,4.15
2022-10-17T03:12:08.295Z,3.72
2022-10-17T03:17:03.723Z,4.43
2022-10-17T03:19:31.147Z,4.28
2022-10-17T03:21:58.242Z,3.88
2022-10-17T03:24:25.209Z,3.65
2022-10-17T03:26:52.142Z,3.97
2022-10-17T03:29:19.544Z,3.70
2022-10-17T03:31:47.956Z,3.97
2022-10-17T03:34:17.618Z,3.83
2022-10-17T03:36:45.714Z,3.75
2022-10-17T03:39:13.060Z,3.67
2022-10-17T03:41:40.070Z,3.83
2022-10-17T03:44:07.266Z,3.97
2022-10-17T03:46:34.154Z,4.30
2022-10-17T03:49:01.579Z,4.00
2022-10-17T03:54:02.464Z,3.45
2022-10-17T03:56:29.633Z,4.60
2022-10-17T03:59:03.206Z,4.00
2022-10-17T04:01:33.363Z,4.07
2022-10-17T04:04:00.483Z,3.90
2022-10-17T04:06:31.047Z,3.75
2022-10-17T04:08:58.247Z,4.28
2022-10-17T04:11:31.750Z,4.30
2022-10-17T04:14:00.860Z,3.90
2022-10-17T04:16:29.725Z,3.95
2022-10-17T04:19:01.125Z,4.40
2022-10-17T04:21:32.551Z,4.03
2022-10-17T04:24:05.843Z,3.67
2022-10-17T04:26:44.933Z,4.00
2022-10-17T04:29:13.126Z,4.05
2022-10-17T04:31:41.702Z,4.07
2022-10-17T04:34:19.647Z,4.35
2022-10-17T04:36:47.238Z,4.05
2022-10-17T04:39:14.942Z,4.05
2022-10-17T04:41:42.367Z,4.82
2022-10-17T04:44:11.051Z,4.60
2022-10-17T04:46:41.919Z,5.05
2022-10-17T04:49:09.568Z,4.68
2022-10-17T04:51:38.795Z,4.00
2022-10-17T04:54:19.887Z,4.38
2022-10-17T04:56:53.735Z,4.38
2022-10-17T04:59:20.968Z,3.83
2022-10-17T05:01:54.449Z,4.05
2022-10-17T05:04:24.007Z,3.83
2022-10-17T05:06:53.061Z,3.72
2022-10-17T05:09:26.426Z,4.63
2022-10-17T05:11:54.925Z,4.80
2022-10-17T05:14:23.015Z,4.82
2022-10-17T05:16:50.118Z,4.13
2022-10-17T05:19:18.369Z,3.63
2022-10-17T05:21:47.858Z,3.88
2022-10-17T05:24:15.340Z,4.30
2022-10-17T05:26:42.308Z,4.35
2022-10-17T05:29:10.428Z,4.32
2022-10-17T05:31:42.520Z,5.30
2022-10-17T05:35:13.685Z,4.80
2022-10-17T05:38:06.199Z,4.47
2022-10-17T05:40:35.059Z,4.47
2022-10-17T05:43:02.890Z,4.53
2022-10-17T05:45:30.437Z,4.32
2022-10-17T05:47:57.826Z,5.18
2022-10-17T05:50:25.278Z,4.88
2022-10-17T05:53:05.560Z,4.90
2022-10-17T05:55:38.400Z,4.95
2022-10-17T05:58:05.324Z,5.25
2022-10-17T06:00:36.679Z,5.30
2022-10-17T06:03:04.184Z,4.95
2022-10-17T06:05:31.264Z,4.85
2022-10-17T06:08:01.121Z,4.78
2022-10-17T06:10:34.548Z,4.65
2022-10-17T06:13:02.409Z,4.47
2022-10-17T06:15:29.262Z,5.03
2022-10-17T06:18:02.078Z,4.50
2022-10-17T06:20:29.133Z,4.72
2022-10-17T06:22:56.585Z,4.85
2022-10-17T06:25:45.093Z,4.55
2022-10-17T06:28:12.871Z,4.25
2022-10-17T06:30:41.144Z,4.00
2022-10-17T06:33:08.454Z,4.25
2022-10-17T06:35:36.186Z,4.22
2022-10-17T06:38:04.091Z,4.25
2022-10-17T06:40:34.769Z,4.70
2022-10-17T06:43:02.017Z,3.78
2022-10-17T06:48:31.083Z,4.00
2022-10-17T06:51:36.572Z,4.75
2022-10-17T06:54:06.935Z,4.32
2022-10-17T06:56:52.917Z,5.20
2022-10-17T06:59:49.018Z,5.40
2022-10-17T07:02:20.592Z,5.30
2022-10-17T07:04:47.956Z,5.47
2022-10-17T07:07:14.699Z,4.72
2022-10-17T07:09:41.604Z,5.90
2022-10-17T07:12:09.387Z,5.18
2022-10-17T07:14:42.187Z,4.68
2022-10-17T07:19:38.302Z,4.57
2022-10-17T07:22:07.652Z,5.60
2022-10-17T07:24:37.229Z,5.43
2022-10-17T07:27:26.520Z,5.45
2022-10-17T07:29:53.686Z,5.70
2022-10-17T07:32:36.392Z,5.25
2022-10-17T07:35:04.969Z,5.15
2022-10-17T07:37:32.337Z,5.55
2022-10-17T07:40:02.677Z,5.28
2022-10-17T07:42:29.794Z,5.03
2022-10-17T07:44:59.110Z,5.65
2022-10-17T07:47:31.472Z,5.72
2022-10-17T07:50:00.142Z,5.57
2022-10-17T07:52:27.703Z,4.45
2022-10-17T07:54:55.317Z,4.72
2022-10-17T07:57:22.271Z,4.75
2022-10-17T07:59:50.829Z,3.50
2022-10-17T08:02:23.224Z,3.58
2022-10-17T08:04:51.281Z,3.35
2022-10-17T08:07:24.148Z,3.20
2022-10-17T08:09:54.060Z,4.05
2022-10-17T08:12:21.082Z,3.25
2022-10-17T08:14:48.187Z,3.30
2022-10-17T08:17:15.288Z,3.60
2022-10-17T08:19:42.319Z,2.53
2022-10-17T08:22:09.515Z,2.90
2022-10-17T08:24:36.733Z,2.53
2022-10-17T08:27:11.104Z,3.22
2022-10-17T08:29:39.013Z,2.85
2022-10-17T08:32:09.641Z,2.88
2022-10-17T08:34:36.966Z,2.78
2022-10-17T08:37:04.412Z,2.85
2022-10-17T08:41:58.197Z,2.22
2022-10-17T08:44:31.449Z,2.70
2022-10-17T08:47:02.478Z,3.05
2022-10-17T08:49:42.726Z,2.58
2022-10-17T08:52:41.005Z,2.45
2022-10-17T08:57:49.086Z,2.63
2022-10-17T09:00:21.644Z,3.00
2022-10-17T09:03:04.579Z,2.92
2022-10-17T09:05:46.199Z,2.45
2022-10-17T09:08:18.834Z,2.90
2022-10-17T09:10:58.003Z,2.70
2022-10-17T09:13:59.808Z,2.72
2022-10-17T09:16:38.744Z,2.72
2022-10-17T09:19:15.739Z,2.55
2022-10-17T09:21:50.978Z,2.17
2022-10-17T09:24:25.814Z,2.58
2022-10-17T09:26:54.796Z,1.83
2022-10-17T09:29:32.399Z,2.60
2022-10-17T09:32:18.276Z,2.45
2022-10-17T09:34:45.498Z,2.65
2022-10-17T09:37:15.418Z,2.97
2022-10-17T09:39:44.502Z,2.58
2022-10-17T09:42:21.612Z,2.65
2022-10-17T09:47:29.908Z,2.75
2022-10-17T09:49:57.905Z,2.25
2022-10-17T09:52:34.348Z,2.47
2022-10-17T09:55:26.851Z,2.37
2022-10-17T09:57:58.795Z,2.30
2022-10-17T10:00:34.989Z,2.45
2022-10-17T10:03:26.116Z,2.50
2022-10-17T10:06:25.810Z,2.20
2022-10-17T10:08:55.183Z,2.40
2022-10-17T10:11:44.023Z,1.98
2022-10-17T10:14:20.459Z,2.05
2022-10-17T10:16:48.774Z,2.15
2022-10-17T10:19:49.747Z,2.03
2022-10-17T10:22:18.756Z,2.58
2022-10-17T10:24:45.999Z,2.03
2022-10-17T10:29:49.000Z,1.80
2022-10-17T10:32:36.786Z,2.10
2022-10-17T10:35:09.038Z,1.90
2022-10-17T10:37:43.705Z,2.33
2022-10-17T10:40:37.494Z,2.35
2022-10-17T10:43:06.537Z,2.22
2022-10-17T10:45:48.164Z,2.20
2022-10-17T10:48:22.587Z,2.15
2022-10-17T10:51:05.359Z,2.20
2022-10-17T10:53:43.830Z,2.42
2022-10-17T10:56:32.820Z,2.35
2022-10-17T10:59:09.499Z,1.90
2022-10-17T11:01:49.392Z,2.00
2022-10-17T11:04:41.924Z,2.28
2022-10-17T11:07:16.671Z,2.33
2022-10-17T11:09:51.527Z,2.55
2022-10-17T11:12:30.684Z,1.98
2022-10-17T11:15:10.178Z,2.20
2022-10-17T11:17:43.773Z,1.60
2022-10-17T11:20:22.154Z,1.98
2022-10-17T11:22:57.691Z,2.22
2022-10-17T11:25:39.491Z,2.20
2022-10-17T11:28:14.978Z,2.13
2022-10-17T11:31:03.355Z,2.30
2022-10-17T11:33:54.482Z,2.50
2022-10-17T11:36:26.157Z,2.22
2022-10-17T11:38:59.113Z,2.05
2022-10-17T11:41:44.026Z,2.00
2022-10-17T11:44:41.238Z,1.83
2022-10-17T11:47:32.952Z,2.25
2022-10-17T11:53:29.498Z,2.40
2022-10-17T11:55:59.289Z,2.40
2022-10-17T11:58:49.368Z,3.33
2022-10-17T12:01:47.555Z,2.10
2022-10-17T12:04:22.943Z,2.25
2022-10-17T12:07:15.127Z,2.30
2022-10-17T12:09:57.292Z,2.22
2022-10-17T12:12:30.457Z,2.58
2022-10-17T12:15:13.259Z,2.15
2022-10-17T12:18:02.552Z,2.88
2022-10-17T12:20:35.409Z,2.05
2022-10-17T12:23:11.643Z,1.60
2022-10-17T12:25:53.697Z,2.08
2022-10-17T12:28:31.940Z,2.65
2022-10-17T12:31:15.723Z,2.05
2022-10-17T12:33:50.594Z,2.17
2022-10-17T12:36:17.553Z,2.10
2022-10-17T12:38:50.313Z,2.30
2022-10-17T12:41:37.163Z,2.00
2022-10-17T12:46:57.641Z,1.92
2022-10-17T12:49:43.741Z,2.00
2022-10-17T12:52:24.895Z,2.43
2022-10-17T12:55:10.915Z,2.38
2022-10-17T12:58:05.119Z,2.28
2022-10-17T13:00:49.826Z,2.88
2022-10-17T13:03:26.477Z,2.60
2022-10-17T13:05:56.919Z,2.35
2022-10-17T13:08:34.071Z,1.70
2022-10-17T13:11:01.625Z,1.77
2022-10-17T13:13:42.322Z,2.00
2022-10-17T13:16:11.384Z,2.33
2022-10-17T13:18:38.265Z,2.00
2022-10-17T13:21:16.124Z,2.42
2022-10-17T13:23:43.459Z,2.50
2022-10-17T13:26:15.523Z,2.30
2022-10-17T13:28:44.398Z,2.55
2022-10-17T13:31:35.691Z,2.47
2022-10-17T13:34:05.760Z,2.22
2022-10-17T13:36:35.363Z,1.90
2022-10-17T13:39:12.260Z,2.40
2022-10-17T13:41:45.226Z,2.28
2022-10-17T13:44:17.030Z,2.42
2022-10-17T13:46:45.074Z,2.30
2022-10-17T13:49:38.008Z,2.28
2022-10-17T13:52:07.656Z,1.85
2022-10-17T13:54:41.195Z,2.42
2022-10-17T13:57:34.955Z,2.50
2022-10-17T14:00:11.399Z,2.42
2022-10-17T14:02:42.021Z,2.35
2022-10-17T14:05:18.704Z,2.67
2022-10-17T14:10:40.017Z,2.50
2022-10-17T14:13:15.132Z,2.58
2022-10-17T14:15:46.213Z,2.85
2022-10-17T14:18:24.115Z,2.28
2022-10-17T14:23:42.576Z,2.30
2022-10-17T14:26:17.146Z,2.20
2022-10-17T14:28:47.745Z,2.17
2022-10-17T14:31:22.560Z,2.03
2022-10-17T14:33:51.447Z,2.10
2022-10-17T14:36:20.433Z,2.55
2022-10-17T14:38:52.605Z,2.30
2022-10-17T14:44:31.702Z,2.08
2022-10-17T14:47:30.891Z,2.15
2022-10-17T14:50:07.588Z,2.67
2022-10-17T14:52:35.640Z,2.38
2022-10-17T14:55:24.824Z,2.38
2022-10-17T14:57:51.847Z,2.47
2022-10-17T15:00:21.165Z,2.30
2022-10-17T15:02:49.668Z,2.40
2022-10-17T15:05:17.208Z,2.38
2022-10-17T15:07:44.594Z,2.47
2022-10-17T15:10:34.030Z,2.38
2022-10-17T15:13:26.520Z,2.67
2022-10-17T15:15:51.839Z,2.60
2022-10-17T15:18:19.333Z,3.35
2022-10-17T15:20:46.748Z,2.55
2022-10-17T15:23:16.499Z,2.70
2022-10-17T15:25:43.851Z,1.95
2022-10-17T15:28:13.479Z,2.25
2022-10-17T15:30:41.998Z,2.45
2022-10-17T15:33:09.152Z,3.20
2022-10-17T15:35:36.942Z,2.25
2022-10-17T15:38:07.591Z,2.25
2022-10-17T15:40:34.371Z,2.28
2022-10-17T15:43:01.317Z,2.50
2022-10-17T15:45:28.401Z,2.35
2022-10-17T15:48:00.425Z,2.92
2022-10-17T15:50:30.509Z,2.38
2022-10-17T15:52:57.445Z,2.40
2022-10-17T15:55:25.366Z,2.85
2022-10-17T15:57:52.587Z,1.73
2022-10-17T16:00:24.374Z,2.60
2022-10-17T16:02:51.552Z,2.90
2022-10-17T16:05:25.810Z,2.38
2022-10-17T16:07:54.351Z,2.88
2022-10-17T16:10:22.552Z,3.00
2022-10-17T16:12:50.428Z,3.35
2022-10-17T16:15:27.883Z,2.60
2022-10-17T16:18:01.720Z,3.30
2022-10-17T16:20:32.194Z,2.63
2022-10-17T16:23:02.375Z,3.10
2022-10-17T16:25:31.415Z,3.13
2022-10-17T16:28:00.383Z,3.03
2022-10-17T16:30:30.055Z,3.08
2022-10-17T16:32:57.356Z,3.35
2022-10-17T16:35:33.245Z,2.92
2022-10-17T16:38:07.524Z,3.60
2022-10-17T16:40:37.731Z,3.38
2022-10-17T16:43:04.676Z,3.67
2022-10-17T16:45:31.782Z,3.05
2022-10-17T16:47:58.976Z,3.70
2022-10-17T16:50:26.052Z,4.20
2022-10-17T16:52:52.971Z,4.15
2022-10-17T16:55:20.483Z,3.70
2022-10-17T17:00:17.634Z,3.05
2022-10-17T17:02:47.148Z,2.97
2022-10-17T17:05:14.631Z,3.50
2022-10-17T17:07:41.860Z,3.80
2022-10-17T17:12:37.844Z,3.42
2022-10-17T17:15:05.968Z,3.08
2022-10-17T17:17:48.684Z,3.50
2022-10-17T17:20:18.650Z,3.88
2022-10-17T17:22:45.800Z,4.10
2022-10-17T17:25:12.845Z,4.13
2022-10-17T17:27:39.895Z,4.47
2022-10-17T17:30:07.809Z,3.72
2022-10-17T17:32:34.898Z,4.13
2022-10-17T17:35:02.095Z,4.25
2022-10-17T17:37:29.637Z,4.18
2022-10-17T17:39:56.853Z,3.97
2022-10-17T17:42:23.959Z,3.88
2022-10-17T17:44:50.999Z,4.35
2022-10-17T17:47:18.500Z,4.10
2022-10-17T17:49:45.746Z,4.13
2022-10-17T17:52:12.657Z,3.92
2022-10-17T17:54:40.959Z,4.88
2022-10-17T17:57:08.460Z,4.82
2022-10-17T17:59:38.281Z,4.60
2022-10-17T18:02:06.717Z,6.18
2022-10-17T18:04:33.886Z,5.13
2022-10-17T18:07:00.790Z,5.40
2022-10-17T18:09:27.650Z,5.38
2022-10-17T18:11:55.101Z,5.30
2022-10-17T18:16:50.901Z,5.30
2022-10-17T18:19:17.964Z,5.25
2022-10-17T18:21:45.078Z,5.38
2022-10-17T18:24:12.108Z,5.82
2022-10-17T18:26:38.984Z,5.35
2022-10-17T18:29:05.974Z,6.35
2022-10-17T18:31:35.789Z,5.60
2022-10-17T18:34:04.478Z,5.95
2022-10-17T18:36:33.041Z,4.97
2022-10-17T18:39:01.439Z,5.65
2022-10-17T18:41:28.773Z,5.30
2022-10-17T18:46:32.619Z,6.20
2022-10-17T18:49:00.071Z,5.70
2022-10-17T18:51:27.577Z,5.47
2022-10-17T18:53:56.554Z,5.63
2022-10-17T18:56:25.597Z,5.15
2022-10-17T18:58:53.086Z,5.53
2022-10-17T19:03:49.845Z,5.32
2022-10-17T19:06:22.870Z,6.30
2022-10-17T19:08:52.613Z,5.85
2022-10-17T19:13:49.276Z,5.47
2022-10-17T19:16:22.362Z,4.45
2022-10-17T19:18:51.767Z,4.47
2022-10-17T19:21:22.267Z,4.55
2022-10-17T19:23:55.061Z,3.95
2022-10-17T19:26:23.121Z,4.78
2022-10-17T19:28:53.836Z,3.88
2022-10-17T19:31:27.315Z,4.60
2022-10-17T19:33:56.191Z,4.20
2022-10-17T19:36:30.454Z,4.93
2022-10-17T19:39:08.236Z,4.57
2022-10-17T19:41:36.548Z,4.78
2022-10-17T19:44:04.247Z,5.15
2022-10-17T19:46:34.200Z,4.75
2022-10-17T19:49:02.299Z,4.32
2022-10-17T19:51:30.280Z,4.72
2022-10-17T19:54:00.263Z,4.65
2022-10-17T19:56:30.010Z,4.00
2022-10-17T19:58:58.486Z,4.07
2022-10-17T20:01:28.119Z,4.30
2022-10-17T20:03:55.890Z,4.32
2022-10-17T20:06:25.939Z,5.53
2022-10-17T20:08:53.890Z,4.95
2022-10-17T20:11:23.810Z,5.13
2022-10-17T20:13:54.359Z,4.45
2022-10-17T20:16:27.595Z,5.50
2022-10-17T20:19:01.707Z,5.43
2022-10-17T20:21:34.842Z,5.30
2022-10-17T20:24:05.931Z,4.57
2022-10-17T20:26:39.435Z,5.22
2022-10-17T20:29:18.219Z,4.65
2022-10-17T20:31:46.611Z,4.10
2022-10-17T20:34:15.693Z,4.75
2022-10-17T20:36:43.655Z,5.93
2022-10-17T20:39:12.530Z,4.97
2022-10-17T20:41:40.618Z,5.85
2022-10-17T20:44:08.664Z,5.38
2022-10-17T20:46:38.521Z,5.50
2022-10-17T20:49:16.964Z,6.00
2022-10-17T20:51:45.177Z,5.72
2022-10-17T20:54:13.558Z,5.35
2022-10-17T20:56:40.961Z,6.47
2022-10-17T20:59:16.580Z,6.28
2022-10-17T21:01:45.239Z,6.10
2022-10-17T21:04:45.527Z,6.22
2022-10-17T21:07:00.452Z,6.13
2022-10-17T21:09:27.882Z,6.72
2022-10-17T21:11:56.067Z,5.15
2022-10-17T21:14:25.034Z,6.30
2022-10-17T21:16:52.560Z,6.38
2022-10-17T21:19:21.948Z,6.28
2022-10-17T21:21:49.590Z,6.07
2022-10-17T21:26:47.201Z,5.70
2022-10-17T21:29:14.809Z,6.32
2022-10-17T21:31:44.393Z,6.22
2022-10-17T21:34:18.521Z,5.95
2022-10-17T21:36:46.108Z,5.30
2022-10-17T21:39:14.633Z,5.15
2022-10-17T21:41:42.826Z,5.25
2022-10-17T21:44:16.764Z,4.40
2022-10-17T21:46:44.577Z,4.60
2022-10-17T21:49:15.253Z,4.57
2022-10-17T21:51:44.188Z,4.00
2022-10-17T21:54:11.806Z,3.63
2022-10-17T21:56:41.681Z,4.15
2022-10-17T21:59:09.339Z,4.07
2022-10-17T22:04:07.794Z,3.83
2022-10-17T22:06:40.278Z,3.63
2022-10-17T22:09:23.190Z,4.13
2022-10-17T22:11:53.351Z,4.13
2022-10-17T22:14:23.075Z,3.90
2022-10-17T22:16:50.724Z,3.83
2022-10-17T22:21:50.420Z,3.30
2022-10-17T22:26:52.130Z,3.58
2022-10-17T22:31:46.645Z,4.00
2022-10-17T22:36:42.340Z,3.28
2022-10-17T22:39:09.991Z,3.80
2022-10-17T22:41:37.450Z,4.22
2022-10-17T22:44:04.879Z,4.25
2022-10-17T22:46:32.331Z,3.88
2022-10-17T22:48:59.837Z,4.00
2022-10-17T22:51:27.741Z,3.83
2022-10-17T22:53:54.973Z,4.32
2022-10-17T22:56:23.816Z,3.70
2022-10-17T22:58:51.491Z,4.32
2022-10-17T23:01:24.381Z,4.20
2022-10-17T23:03:54.264Z,4.05
2022-10-17T23:06:22.229Z,4.43
2022-10-17T23:08:49.724Z,5.20
2022-10-17T23:11:17.136Z,4.57
2022-10-17T23:16:11.749Z,4.50
2022-10-17T23:21:06.934Z,3.65
2022-10-17T23:23:34.488Z,4.68
2022-10-17T23:26:13.392Z,5.18
2022-10-17T23:28:42.757Z,4.65
2022-10-17T23:31:18.704Z,4.30
2022-10-17T23:33:48.159Z,4.07
2022-10-17T23:36:19.389Z,4.80
2022-10-17T23:38:47.862Z,4.75
2022-10-17T23:41:17.467Z,4.70
2022-10-17T23:43:45.112Z,4.63
2022-10-17T23:46:12.942Z,5.20
2022-10-17T23:48:40.856Z,4.53
2022-10-17T23:51:09.321Z,4.72
2022-10-17T23:53:38.435Z,4.82
2022-10-17T23:56:10.758Z,4.63
2022-10-17T23:58:41.635Z,4.97
